sensor_id;sensor_type;location;lat;lon;timestamp;P1;durP1;ratioP1;P2;durP2;ratioP2
74632;SDS011;63139;52.018;8.552;2023-04-07T00:01:57;10.85;;;6.68;;
74632;SDS011;63139;52.018;8.552;2023-04-07T00:04:26;11.52;;;7.32;;
74632;SDS011;63139;52.018;8.552;2023-04-07T00:06:54;11.07;;;7.70;;
74632;SDS011;63139;52.018;8.552;2023-04-07T00:09:22;10.35;;;7.68;;
74632;SDS011;63139;52.018;8.552;2023-04-07T00:11:50;11.85;;;7.63;;
74632;SDS011;63139;52.018;8.552;2023-04-07T00:14:17;10.45;;;6.97;;
74632;SDS011;63139;52.018;8.552;2023-04-07T00:16:45;11.57;;;8.00;;
74632;SDS011;63139;52.018;8.552;2023-04-07T00:19:13;13.27;;;8.20;;
74632;SDS011;63139;52.018;8.552;2023-04-07T00:21:42;9.55;;;7.05;;
74632;SDS011;63139;52.018;8.552;2023-04-07T00:24:10;11.10;;;7.28;;
74632;SDS011;63139;52.018;8.552;2023-04-07T00:26:43;10.18;;;7.85;;
74632;SDS011;63139;52.018;8.552;2023-04-07T00:29:11;10.43;;;7.18;;
74632;SDS011;63139;52.018;8.552;2023-04-07T00:31:39;11.10;;;8.18;;
74632;SDS011;63139;52.018;8.552;2023-04-07T00:34:07;13.65;;;9.85;;
74632;SDS011;63139;52.018;8.552;2023-04-07T00:36:34;15.27;;;10.43;;
74632;SDS011;63139;52.018;8.552;2023-04-07T00:39:04;13.05;;;9.02;;
74632;SDS011;63139;52.018;8.552;2023-04-07T00:41:32;11.70;;;8.18;;
74632;SDS011;63139;52.018;8.552;2023-04-07T00:44:00;11.88;;;7.80;;
74632;SDS011;63139;52.018;8.552;2023-04-07T00:46:28;13.82;;;8.65;;
74632;SDS011;63139;52.018;8.552;2023-04-07T00:48:56;11.18;;;7.93;;
74632;SDS011;63139;52.018;8.552;2023-04-07T00:51:24;12.98;;;8.80;;
74632;SDS011;63139;52.018;8.552;2023-04-07T00:53:53;13.27;;;7.93;;
74632;SDS011;63139;52.018;8.552;2023-04-07T00:56:24;11.80;;;8.00;;
74632;SDS011;63139;52.018;8.552;2023-04-07T00:58:52;10.93;;;7.93;;
74632;SDS011;63139;52.018;8.552;2023-04-07T01:01:21;10.13;;;7.30;;
74632;SDS011;63139;52.018;8.552;2023-04-07T01:03:52;12.05;;;7.78;;
74632;SDS011;63139;52.018;8.552;2023-04-07T01:06:25;9.52;;;6.85;;
74632;SDS011;63139;52.018;8.552;2023-04-07T01:08:59;12.13;;;7.43;;
74632;SDS011;63139;52.018;8.552;2023-04-07T01:11:36;9.88;;;6.35;;
74632;SDS011;63139;52.018;8.552;2023-04-07T01:14:14;8.30;;;5.90;;
74632;SDS011;63139;52.018;8.552;2023-04-07T01:16:51;10.63;;;6.80;;
74632;SDS011;63139;52.018;8.552;2023-04-07T01:19:35;9.82;;;6.53;;
74632;SDS011;63139;52.018;8.552;2023-04-07T01:22:07;9.00;;;6.88;;
74632;SDS011;63139;52.018;8.552;2023-04-07T01:24:42;8.48;;;6.50;;
74632;SDS011;63139;52.018;8.552;2023-04-07T01:27:35;9.80;;;7.50;;
74632;SDS011;63139;52.018;8.552;2023-04-07T01:30:09;8.55;;;6.40;;
74632;SDS011;63139;52.018;8.552;2023-04-07T01:32:39;10.00;;;7.28;;
74632;SDS011;63139;52.018;8.552;2023-04-07T01:35:11;9.20;;;6.82;;
74632;SDS011;63139;52.018;8.552;2023-04-07T01:37:40;10.43;;;7.00;;
74632;SDS011;63139;52.018;8.552;2023-04-07T01:40:11;9.13;;;6.70;;
74632;SDS011;63139;52.018;8.552;2023-04-07T01:42:40;11.18;;;7.15;;
74632;SDS011;63139;52.018;8.552;2023-04-07T01:45:10;10.35;;;6.65;;
74632;SDS011;63139;52.018;8.552;2023-04-07T01:47:38;7.70;;;5.75;;
74632;SDS011;63139;52.018;8.552;2023-04-07T01:50:07;9.77;;;7.28;;
74632;SDS011;63139;52.018;8.552;2023-04-07T01:52:37;8.88;;;6.60;;
74632;SDS011;63139;52.018;8.552;2023-04-07T01:55:06;8.32;;;6.68;;
74632;SDS011;63139;52.018;8.552;2023-04-07T01:57:40;8.48;;;6.47;;
74632;SDS011;63139;52.018;8.552;2023-04-07T02:00:17;9.65;;;6.90;;
74632;SDS011;63139;52.018;8.552;2023-04-07T02:02:51;8.27;;;6.32;;
74632;SDS011;63139;52.018;8.552;2023-04-07T02:05:24;8.30;;;5.72;;
74632;SDS011;63139;52.018;8.552;2023-04-07T02:07:58;9.07;;;6.88;;
74632;SDS011;63139;52.018;8.552;2023-04-07T02:10:32;9.00;;;6.20;;
74632;SDS011;63139;52.018;8.552;2023-04-07T02:13:04;7.15;;;5.88;;
74632;SDS011;63139;52.018;8.552;2023-04-07T02:15:36;8.07;;;5.70;;
74632;SDS011;63139;52.018;8.552;2023-04-07T02:18:05;9.30;;;6.97;;
74632;SDS011;63139;52.018;8.552;2023-04-07T02:20:37;8.10;;;6.18;;
74632;SDS011;63139;52.018;8.552;2023-04-07T02:23:06;8.88;;;6.60;;
74632;SDS011;63139;52.018;8.552;2023-04-07T02:25:34;10.48;;;6.90;;
74632;SDS011;63139;52.018;8.552;2023-04-07T02:28:04;8.80;;;6.03;;
74632;SDS011;63139;52.018;8.552;2023-04-07T02:30:32;8.18;;;5.95;;
74632;SDS011;63139;52.018;8.552;2023-04-07T02:33:03;7.55;;;5.70;;
74632;SDS011;63139;52.018;8.552;2023-04-07T02:35:30;11.98;;;6.65;;
74632;SDS011;63139;52.018;8.552;2023-04-07T02:38:00;10.77;;;7.75;;
74632;SDS011;63139;52.018;8.552;2023-04-07T02:40:28;9.27;;;6.63;;
74632;SDS011;63139;52.018;8.552;2023-04-07T02:42:56;9.80;;;6.00;;
74632;SDS011;63139;52.018;8.552;2023-04-07T02:45:24;9.07;;;6.22;;
74632;SDS011;63139;52.018;8.552;2023-04-07T02:47:51;11.00;;;7.78;;
74632;SDS011;63139;52.018;8.552;2023-04-07T02:50:20;10.23;;;7.22;;
74632;SDS011;63139;52.018;8.552;2023-04-07T02:52:48;9.73;;;7.28;;
74632;SDS011;63139;52.018;8.552;2023-04-07T02:55:16;9.85;;;7.32;;
74632;SDS011;63139;52.018;8.552;2023-04-07T02:57:44;9.60;;;6.03;;
74632;SDS011;63139;52.018;8.552;2023-04-07T03:00:29;9.32;;;6.30;;
74632;SDS011;63139;52.018;8.552;2023-04-07T03:03:08;10.20;;;6.40;;
74632;SDS011;63139;52.018;8.552;2023-04-07T03:05:40;9.48;;;7.00;;
74632;SDS011;63139;52.018;8.552;2023-04-07T03:08:09;9.75;;;6.72;;
74632;SDS011;63139;52.018;8.552;2023-04-07T03:10:38;9.68;;;7.30;;
74632;SDS011;63139;52.018;8.552;2023-04-07T03:13:07;9.55;;;6.63;;
74632;SDS011;63139;52.018;8.552;2023-04-07T03:15:36;10.40;;;7.25;;
74632;SDS011;63139;52.018;8.552;2023-04-07T03:18:04;9.13;;;6.35;;
74632;SDS011;63139;52.018;8.552;2023-04-07T03:20:33;9.88;;;7.70;;
74632;SDS011;63139;52.018;8.552;2023-04-07T03:23:08;9.55;;;7.30;;
74632;SDS011;63139;52.018;8.552;2023-04-07T03:25:36;9.48;;;7.18;;
74632;SDS011;63139;52.018;8.552;2023-04-07T03:28:04;11.00;;;7.68;;
74632;SDS011;63139;52.018;8.552;2023-04-07T03:30:36;11.65;;;7.40;;
74632;SDS011;63139;52.018;8.552;2023-04-07T03:33:04;10.88;;;7.30;;
74632;SDS011;63139;52.018;8.552;2023-04-07T03:35:32;10.20;;;7.22;;
74632;SDS011;63139;52.018;8.552;2023-04-07T03:38:00;12.80;;;7.90;;
74632;SDS011;63139;52.018;8.552;2023-04-07T03:40:29;12.43;;;7.50;;
74632;SDS011;63139;52.018;8.552;2023-04-07T03:42:59;10.80;;;7.45;;
74632;SDS011;63139;52.018;8.552;2023-04-07T03:45:27;9.80;;;7.13;;
74632;SDS011;63139;52.018;8.552;2023-04-07T03:47:55;9.65;;;6.63;;
74632;SDS011;63139;52.018;8.552;2023-04-07T03:50:23;10.15;;;7.47;;
74632;SDS011;63139;52.018;8.552;2023-04-07T03:53:12;10.25;;;6.70;;
74632;SDS011;63139;52.018;8.552;2023-04-07T03:55:43;11.65;;;8.30;;
74632;SDS011;63139;52.018;8.552;2023-04-07T03:58:19;11.57;;;7.88;;
74632;SDS011;63139;52.018;8.552;2023-04-07T04:00:47;10.30;;;7.78;;
74632;SDS011;63139;52.018;8.552;2023-04-07T04:03:15;11.27;;;7.40;;
74632;SDS011;63139;52.018;8.552;2023-04-07T04:06:01;10.75;;;7.47;;
74632;SDS011;63139;52.018;8.552;2023-04-07T04:08:30;9.85;;;7.40;;
74632;SDS011;63139;52.018;8.552;2023-04-07T04:11:00;13.23;;;8.57;;
74632;SDS011;63139;52.018;8.552;2023-04-07T04:13:34;11.02;;;7.78;;
74632;SDS011;63139;52.018;8.552;2023-04-07T04:16:04;10.35;;;7.68;;
74632;SDS011;63139;52.018;8.552;2023-04-07T04:18:34;12.55;;;7.82;;
74632;SDS011;63139;52.018;8.552;2023-04-07T04:21:03;10.98;;;7.35;;
74632;SDS011;63139;52.018;8.552;2023-04-07T04:23:31;10.63;;;7.50;;
74632;SDS011;63139;52.018;8.552;2023-04-07T04:26:00;12.90;;;8.73;;
74632;SDS011;63139;52.018;8.552;2023-04-07T04:28:30;11.85;;;7.00;;
74632;SDS011;63139;52.018;8.552;2023-04-07T04:30:59;9.23;;;6.68;;
74632;SDS011;63139;52.018;8.552;2023-04-07T04:33:30;9.88;;;6.97;;
74632;SDS011;63139;52.018;8.552;2023-04-07T04:35:58;9.80;;;6.75;;
74632;SDS011;63139;52.018;8.552;2023-04-07T04:38:26;11.27;;;7.75;;
74632;SDS011;63139;52.018;8.552;2023-04-07T04:41:05;11.95;;;8.60;;
74632;SDS011;63139;52.018;8.552;2023-04-07T04:43:33;9.82;;;6.93;;
74632;SDS011;63139;52.018;8.552;2023-04-07T04:46:02;12.38;;;6.95;;
74632;SDS011;63139;52.018;8.552;2023-04-07T04:48:35;10.75;;;6.95;;
74632;SDS011;63139;52.018;8.552;2023-04-07T04:51:05;11.57;;;7.60;;
74632;SDS011;63139;52.018;8.552;2023-04-07T04:53:35;11.63;;;8.32;;
74632;SDS011;63139;52.018;8.552;2023-04-07T04:56:06;11.65;;;7.75;;
74632;SDS011;63139;52.018;8.552;2023-04-07T04:58:44;11.82;;;7.60;;
74632;SDS011;63139;52.018;8.552;2023-04-07T05:01:33;13.05;;;8.40;;
74632;SDS011;63139;52.018;8.552;2023-04-07T05:04:07;12.02;;;7.97;;
74632;SDS011;63139;52.018;8.552;2023-04-07T05:06:41;10.77;;;7.65;;
74632;SDS011;63139;52.018;8.552;2023-04-07T05:09:11;11.63;;;7.75;;
74632;SDS011;63139;52.018;8.552;2023-04-07T05:11:44;11.20;;;7.47;;
74632;SDS011;63139;52.018;8.552;2023-04-07T05:14:12;11.23;;;7.65;;
74632;SDS011;63139;52.018;8.552;2023-04-07T05:16:45;11.68;;;7.53;;
74632;SDS011;63139;52.018;8.552;2023-04-07T05:19:18;11.70;;;7.70;;
74632;SDS011;63139;52.018;8.552;2023-04-07T05:21:48;13.02;;;8.30;;
74632;SDS011;63139;52.018;8.552;2023-04-07T05:24:18;14.15;;;8.20;;
74632;SDS011;63139;52.018;8.552;2023-04-07T05:26:52;11.93;;;7.72;;
74632;SDS011;63139;52.018;8.552;2023-04-07T05:29:20;13.20;;;8.40;;
74632;SDS011;63139;52.018;8.552;2023-04-07T05:31:48;12.82;;;8.50;;
74632;SDS011;63139;52.018;8.552;2023-04-07T05:34:18;10.93;;;7.35;;
74632;SDS011;63139;52.018;8.552;2023-04-07T05:36:51;10.27;;;7.38;;
74632;SDS011;63139;52.018;8.552;2023-04-07T05:39:20;11.10;;;8.05;;
74632;SDS011;63139;52.018;8.552;2023-04-07T05:41:50;10.18;;;7.32;;
74632;SDS011;63139;52.018;8.552;2023-04-07T05:44:23;12.07;;;7.22;;
74632;SDS011;63139;52.018;8.552;2023-04-07T05:46:51;10.27;;;7.60;;
74632;SDS011;63139;52.018;8.552;2023-04-07T05:49:21;11.60;;;7.82;;
74632;SDS011;63139;52.018;8.552;2023-04-07T05:51:58;9.75;;;6.90;;
74632;SDS011;63139;52.018;8.552;2023-04-07T05:54:26;9.43;;;6.80;;
74632;SDS011;63139;52.018;8.552;2023-04-07T05:56:56;10.15;;;7.10;;
74632;SDS011;63139;52.018;8.552;2023-04-07T05:59:26;10.35;;;6.80;;
74632;SDS011;63139;52.018;8.552;2023-04-07T06:01:54;9.30;;;6.90;;
74632;SDS011;63139;52.018;8.552;2023-04-07T06:04:22;12.15;;;8.00;;
74632;SDS011;63139;52.018;8.552;2023-04-07T06:06:50;10.55;;;7.78;;
74632;SDS011;63139;52.018;8.552;2023-04-07T06:09:20;10.43;;;7.57;;
74632;SDS011;63139;52.018;8.552;2023-04-07T06:11:48;11.35;;;7.30;;
74632;SDS011;63139;52.018;8.552;2023-04-07T06:14:17;10.63;;;6.93;;
74632;SDS011;63139;52.018;8.552;2023-04-07T06:16:46;10.02;;;7.03;;
74632;SDS011;63139;52.018;8.552;2023-04-07T06:19:13;12.70;;;8.02;;
74632;SDS011;63139;52.018;8.552;2023-04-07T06:21:41;9.23;;;6.30;;
74632;SDS011;63139;52.018;8.552;2023-04-07T06:24:09;10.88;;;7.03;;
74632;SDS011;63139;52.018;8.552;2023-04-07T06:26:38;9.95;;;7.43;;
74632;SDS011;63139;52.018;8.552;2023-04-07T06:29:06;9.20;;;6.40;;
74632;SDS011;63139;52.018;8.552;2023-04-07T06:31:35;8.63;;;6.13;;
74632;SDS011;63139;52.018;8.552;2023-04-07T06:34:04;10.18;;;7.03;;
74632;SDS011;63139;52.018;8.552;2023-04-07T06:36:31;11.63;;;8.30;;
74632;SDS011;63139;52.018;8.552;2023-04-07T06:39:00;10.20;;;6.80;;
74632;SDS011;63139;52.018;8.552;2023-04-07T06:41:28;11.18;;;8.07;;
74632;SDS011;63139;52.018;8.552;2023-04-07T06:43:57;12.35;;;7.65;;
74632;SDS011;63139;52.018;8.552;2023-04-07T06:46:24;12.10;;;8.38;;
74632;SDS011;63139;52.018;8.552;2023-04-07T06:48:54;11.05;;;8.05;;
74632;SDS011;63139;52.018;8.552;2023-04-07T06:51:21;11.18;;;8.13;;
74632;SDS011;63139;52.018;8.552;2023-04-07T06:53:49;10.02;;;7.30;;
74632;SDS011;63139;52.018;8.552;2023-04-07T06:56:17;12.40;;;8.18;;
74632;SDS011;63139;52.018;8.552;2023-04-07T06:58:45;9.05;;;6.90;;
74632;SDS011;63139;52.018;8.552;2023-04-07T07:01:13;8.60;;;6.72;;
74632;SDS011;63139;52.018;8.552;2023-04-07T07:03:41;11.10;;;7.13;;
74632;SDS011;63139;52.018;8.552;2023-04-07T07:06:10;9.85;;;7.63;;
74632;SDS011;63139;52.018;8.552;2023-04-07T07:08:38;8.02;;;5.95;;
74632;SDS011;63139;52.018;8.552;2023-04-07T07:11:06;10.98;;;7.18;;
74632;SDS011;63139;52.018;8.552;2023-04-07T07:13:33;10.32;;;7.07;;
74632;SDS011;63139;52.018;8.552;2023-04-07T07:16:01;8.43;;;6.15;;
74632;SDS011;63139;52.018;8.552;2023-04-07T07:18:29;7.55;;;6.07;;
74632;SDS011;63139;52.018;8.552;2023-04-07T07:20:57;8.13;;;6.47;;
74632;SDS011;63139;52.018;8.552;2023-04-07T07:23:26;8.48;;;5.95;;
74632;SDS011;63139;52.018;8.552;2023-04-07T07:25:54;6.57;;;5.13;;
74632;SDS011;63139;52.018;8.552;2023-04-07T07:28:22;7.50;;;5.57;;
74632;SDS011;63139;52.018;8.552;2023-04-07T07:30:49;6.85;;;4.57;;
74632;SDS011;63139;52.018;8.552;2023-04-07T07:33:17;6.65;;;4.80;;
74632;SDS011;63139;52.018;8.552;2023-04-07T07:35:45;7.75;;;5.68;;
74632;SDS011;63139;52.018;8.552;2023-04-07T07:38:13;5.65;;;4.40;;
74632;SDS011;63139;52.018;8.552;2023-04-07T07:40:42;5.45;;;4.30;;
74632;SDS011;63139;52.018;8.552;2023-04-07T07:43:10;4.82;;;4.20;;
74632;SDS011;63139;52.018;8.552;2023-04-07T07:45:37;5.40;;;4.10;;
74632;SDS011;63139;52.018;8.552;2023-04-07T07:48:05;4.15;;;3.75;;
74632;SDS011;63139;52.018;8.552;2023-04-07T07:50:33;5.22;;;4.25;;
74632;SDS011;63139;52.018;8.552;2023-04-07T07:53:01;5.68;;;4.30;;
74632;SDS011;63139;52.018;8.552;2023-04-07T07:55:29;5.25;;;4.00;;
74632;SDS011;63139;52.018;8.552;2023-04-07T07:57:58;6.70;;;4.68;;
74632;SDS011;63139;52.018;8.552;2023-04-07T08:00:26;4.90;;;4.00;;
74632;SDS011;63139;52.018;8.552;2023-04-07T08:02:54;4.47;;;3.70;;
74632;SDS011;63139;52.018;8.552;2023-04-07T08:05:22;4.80;;;4.10;;
74632;SDS011;63139;52.018;8.552;2023-04-07T08:07:50;7.00;;;4.70;;
74632;SDS011;63139;52.018;8.552;2023-04-07T08:10:20;4.43;;;3.67;;
74632;SDS011;63139;52.018;8.552;2023-04-07T08:12:50;5.00;;;4.15;;
74632;SDS011;63139;52.018;8.552;2023-04-07T08:15:19;6.05;;;4.10;;
74632;SDS011;63139;52.018;8.552;2023-04-07T08:17:47;4.22;;;3.67;;
74632;SDS011;63139;52.018;8.552;2023-04-07T08:20:14;4.35;;;3.60;;
74632;SDS011;63139;52.018;8.552;2023-04-07T08:22:42;7.78;;;4.00;;
74632;SDS011;63139;52.018;8.552;2023-04-07T08:25:10;4.88;;;4.15;;
74632;SDS011;63139;52.018;8.552;2023-04-07T08:27:38;5.20;;;4.00;;
74632;SDS011;63139;52.018;8.552;2023-04-07T08:30:06;4.40;;;3.65;;
74632;SDS011;63139;52.018;8.552;2023-04-07T08:32:36;3.92;;;3.40;;
74632;SDS011;63139;52.018;8.552;2023-04-07T08:35:04;4.70;;;3.47;;
74632;SDS011;63139;52.018;8.552;2023-04-07T08:37:33;5.35;;;3.75;;
74632;SDS011;63139;52.018;8.552;2023-04-07T08:40:01;4.90;;;4.05;;
74632;SDS011;63139;52.018;8.552;2023-04-07T08:42:31;4.28;;;3.88;;
74632;SDS011;63139;52.018;8.552;2023-04-07T08:45:01;4.70;;;4.20;;
74632;SDS011;63139;52.018;8.552;2023-04-07T08:47:30;5.45;;;4.50;;
74632;SDS011;63139;52.018;8.552;2023-04-07T08:50:01;6.55;;;5.10;;
74632;SDS011;63139;52.018;8.552;2023-04-07T08:52:32;6.35;;;4.82;;
74632;SDS011;63139;52.018;8.552;2023-04-07T08:55:02;6.00;;;4.90;;
74632;SDS011;63139;52.018;8.552;2023-04-07T08:57:32;7.22;;;4.32;;
74632;SDS011;63139;52.018;8.552;2023-04-07T09:00:00;5.68;;;4.57;;
74632;SDS011;63139;52.018;8.552;2023-04-07T09:02:31;6.18;;;4.30;;
74632;SDS011;63139;52.018;8.552;2023-04-07T09:05:02;5.47;;;4.15;;
74632;SDS011;63139;52.018;8.552;2023-04-07T09:07:32;4.93;;;4.40;;
74632;SDS011;63139;52.018;8.552;2023-04-07T09:10:01;4.70;;;3.55;;
74632;SDS011;63139;52.018;8.552;2023-04-07T09:12:29;4.72;;;3.70;;
74632;SDS011;63139;52.018;8.552;2023-04-07T09:14:57;4.45;;;3.78;;
74632;SDS011;63139;52.018;8.552;2023-04-07T09:17:25;5.95;;;4.80;;
74632;SDS011;63139;52.018;8.552;2023-04-07T09:19:54;5.70;;;4.50;;
74632;SDS011;63139;52.018;8.552;2023-04-07T09:22:37;5.43;;;4.05;;
74632;SDS011;63139;52.018;8.552;2023-04-07T09:25:11;4.30;;;3.90;;
74632;SDS011;63139;52.018;8.552;2023-04-07T09:27:40;6.43;;;4.88;;
74632;SDS011;63139;52.018;8.552;2023-04-07T09:30:21;6.68;;;4.80;;
74632;SDS011;63139;52.018;8.552;2023-04-07T09:32:49;6.95;;;5.07;;
74632;SDS011;63139;52.018;8.552;2023-04-07T09:35:17;4.13;;;3.72;;
74632;SDS011;63139;52.018;8.552;2023-04-07T09:37:48;5.45;;;4.65;;
74632;SDS011;63139;52.018;8.552;2023-04-07T09:40:28;4.88;;;4.25;;
74632;SDS011;63139;52.018;8.552;2023-04-07T09:42:55;5.63;;;4.63;;
74632;SDS011;63139;52.018;8.552;2023-04-07T09:45:24;5.82;;;4.75;;
74632;SDS011;63139;52.018;8.552;2023-04-07T09:48:03;6.22;;;5.07;;
74632;SDS011;63139;52.018;8.552;2023-04-07T09:50:32;5.60;;;4.78;;
74632;SDS011;63139;52.018;8.552;2023-04-07T09:53:02;7.05;;;5.22;;
74632;SDS011;63139;52.018;8.552;2023-04-07T09:55:30;6.43;;;4.65;;
74632;SDS011;63139;52.018;8.552;2023-04-07T09:57:59;4.90;;;4.40;;
74632;SDS011;63139;52.018;8.552;2023-04-07T10:00:27;5.50;;;4.55;;
74632;SDS011;63139;52.018;8.552;2023-04-07T10:02:55;5.70;;;5.07;;
74632;SDS011;63139;52.018;8.552;2023-04-07T10:05:24;5.22;;;4.55;;
74632;SDS011;63139;52.018;8.552;2023-04-07T10:07:52;5.10;;;4.35;;
74632;SDS011;63139;52.018;8.552;2023-04-07T10:10:22;6.38;;;5.32;;
74632;SDS011;63139;52.018;8.552;2023-04-07T10:12:51;5.03;;;4.10;;
74632;SDS011;63139;52.018;8.552;2023-04-07T10:15:23;6.07;;;4.53;;
74632;SDS011;63139;52.018;8.552;2023-04-07T10:17:51;7.28;;;5.50;;
74632;SDS011;63139;52.018;8.552;2023-04-07T10:20:22;6.07;;;5.30;;
74632;SDS011;63139;52.018;8.552;2023-04-07T10:22:50;5.50;;;4.55;;
74632;SDS011;63139;52.018;8.552;2023-04-07T10:25:20;6.63;;;5.20;;
74632;SDS011;63139;52.018;8.552;2023-04-07T10:27:52;5.28;;;4.65;;
74632;SDS011;63139;52.018;8.552;2023-04-07T10:30:23;6.65;;;5.13;;
74632;SDS011;63139;52.018;8.552;2023-04-07T10:32:52;6.45;;;4.93;;
74632;SDS011;63139;52.018;8.552;2023-04-07T10:35:21;5.53;;;4.38;;
74632;SDS011;63139;52.018;8.552;2023-04-07T10:38:09;6.50;;;5.13;;
74632;SDS011;63139;52.018;8.552;2023-04-07T10:40:41;5.78;;;4.90;;
74632;SDS011;63139;52.018;8.552;2023-04-07T10:43:09;5.25;;;4.57;;
74632;SDS011;63139;52.018;8.552;2023-04-07T10:45:53;5.30;;;4.63;;
74632;SDS011;63139;52.018;8.552;2023-04-07T10:48:28;4.57;;;3.80;;
74632;SDS011;63139;52.018;8.552;2023-04-07T10:51:11;6.03;;;4.38;;
74632;SDS011;63139;52.018;8.552;2023-04-07T10:57:05;6.05;;;4.43;;
74632;SDS011;63139;52.018;8.552;2023-04-07T10:59:38;5.28;;;4.47;;
74632;SDS011;63139;52.018;8.552;2023-04-07T11:04:59;5.00;;;4.00;;
74632;SDS011;63139;52.018;8.552;2023-04-07T11:10:15;5.65;;;4.00;;
74632;SDS011;63139;52.018;8.552;2023-04-07T11:12:57;5.18;;;4.63;;
74632;SDS011;63139;52.018;8.552;2023-04-07T11:15:26;5.22;;;4.40;;
74632;SDS011;63139;52.018;8.552;2023-04-07T11:18:08;6.00;;;5.13;;
74632;SDS011;63139;52.018;8.552;2023-04-07T11:20:39;6.85;;;5.15;;
74632;SDS011;63139;52.018;8.552;2023-04-07T11:23:11;5.70;;;4.93;;
74632;SDS011;63139;52.018;8.552;2023-04-07T11:28:10;6.00;;;5.40;;
74632;SDS011;63139;52.018;8.552;2023-04-07T11:30:43;7.38;;;4.78;;
74632;SDS011;63139;52.018;8.552;2023-04-07T11:33:14;5.93;;;4.90;;
74632;SDS011;63139;52.018;8.552;2023-04-07T11:35:47;6.00;;;4.90;;
74632;SDS011;63139;52.018;8.552;2023-04-07T11:38:16;7.15;;;5.00;;
74632;SDS011;63139;52.018;8.552;2023-04-07T11:40:45;7.18;;;5.47;;
74632;SDS011;63139;52.018;8.552;2023-04-07T11:43:18;8.50;;;6.50;;
74632;SDS011;63139;52.018;8.552;2023-04-07T11:46:03;9.00;;;6.75;;
74632;SDS011;63139;52.018;8.552;2023-04-07T11:48:33;8.57;;;5.97;;
74632;SDS011;63139;52.018;8.552;2023-04-07T11:51:02;6.93;;;5.50;;
74632;SDS011;63139;52.018;8.552;2023-04-07T11:53:32;8.07;;;6.80;;
74632;SDS011;63139;52.018;8.552;2023-04-07T11:56:04;7.65;;;6.07;;
74632;SDS011;63139;52.018;8.552;2023-04-07T11:58:36;7.78;;;5.57;;
74632;SDS011;63139;52.018;8.552;2023-04-07T12:01:05;7.82;;;6.57;;
74632;SDS011;63139;52.018;8.552;2023-04-07T12:03:35;7.35;;;5.93;;
74632;SDS011;63139;52.018;8.552;2023-04-07T12:06:03;8.75;;;6.20;;
74632;SDS011;63139;52.018;8.552;2023-04-07T12:08:35;9.30;;;7.00;;
74632;SDS011;63139;52.018;8.552;2023-04-07T12:11:04;9.23;;;6.53;;
74632;SDS011;63139;52.018;8.552;2023-04-07T12:13:33;8.90;;;7.53;;
74632;SDS011;63139;52.018;8.552;2023-04-07T12:16:02;9.98;;;7.85;;
74632;SDS011;63139;52.018;8.552;2023-04-07T12:18:30;9.05;;;7.95;;
74632;SDS011;63139;52.018;8.552;2023-04-07T12:20:58;8.45;;;6.97;;
74632;SDS011;63139;52.018;8.552;2023-04-07T12:23:26;8.55;;;6.50;;
74632;SDS011;63139;52.018;8.552;2023-04-07T12:25:54;8.15;;;6.90;;
74632;SDS011;63139;52.018;8.552;2023-04-07T12:28:22;6.97;;;5.95;;
74632;SDS011;63139;52.018;8.552;2023-04-07T12:30:49;7.65;;;6.20;;
74632;SDS011;63139;52.018;8.552;2023-04-07T12:33:19;6.78;;;5.70;;
74632;SDS011;63139;52.018;8.552;2023-04-07T12:35:47;9.30;;;6.40;;
74632;SDS011;63139;52.018;8.552;2023-04-07T12:38:15;9.38;;;7.38;;
74632;SDS011;63139;52.018;8.552;2023-04-07T12:40:43;9.32;;;7.45;;
74632;SDS011;63139;52.018;8.552;2023-04-07T12:43:11;8.35;;;6.13;;
74632;SDS011;63139;52.018;8.552;2023-04-07T12:45:39;8.30;;;6.38;;
74632;SDS011;63139;52.018;8.552;2023-04-07T12:48:07;8.13;;;6.68;;
74632;SDS011;63139;52.018;8.552;2023-04-07T12:50:37;7.07;;;6.30;;
74632;SDS011;63139;52.018;8.552;2023-04-07T12:53:05;7.10;;;6.32;;
74632;SDS011;63139;52.018;8.552;2023-04-07T12:55:34;7.32;;;6.05;;
74632;SDS011;63139;52.018;8.552;2023-04-07T12:58:03;8.60;;;6.75;;
74632;SDS011;63139;52.018;8.552;2023-04-07T13:00:31;6.95;;;5.80;;
74632;SDS011;63139;52.018;8.552;2023-04-07T13:02:59;7.20;;;6.15;;
74632;SDS011;63139;52.018;8.552;2023-04-07T13:05:27;8.75;;;6.10;;
74632;SDS011;63139;52.018;8.552;2023-04-07T13:07:57;7.95;;;6.20;;
74632;SDS011;63139;52.018;8.552;2023-04-07T13:10:31;7.13;;;5.93;;
74632;SDS011;63139;52.018;8.552;2023-04-07T13:12:58;7.72;;;6.28;;
74632;SDS011;63139;52.018;8.552;2023-04-07T13:15:27;6.90;;;6.00;;
74632;SDS011;63139;52.018;8.552;2023-04-07T13:17:55;5.65;;;4.60;;
74632;SDS011;63139;52.018;8.552;2023-04-07T13:20:23;6.25;;;4.85;;
74632;SDS011;63139;52.018;8.552;2023-04-07T13:22:53;6.47;;;5.88;;
74632;SDS011;63139;52.018;8.552;2023-04-07T13:25:27;6.47;;;5.75;;
74632;SDS011;63139;52.018;8.552;2023-04-07T13:27:55;6.00;;;4.50;;
74632;SDS011;63139;52.018;8.552;2023-04-07T13:30:24;6.32;;;4.50;;
74632;SDS011;63139;52.018;8.552;2023-04-07T13:32:53;6.75;;;5.95;;
74632;SDS011;63139;52.018;8.552;2023-04-07T13:35:21;6.82;;;5.13;;
74632;SDS011;63139;52.018;8.552;2023-04-07T13:37:49;8.02;;;6.07;;
74632;SDS011;63139;52.018;8.552;2023-04-07T13:40:17;7.13;;;6.00;;
74632;SDS011;63139;52.018;8.552;2023-04-07T13:42:47;6.30;;;4.90;;
74632;SDS011;63139;52.018;8.552;2023-04-07T13:45:15;4.75;;;4.25;;
74632;SDS011;63139;52.018;8.552;2023-04-07T13:47:43;7.20;;;5.75;;
74632;SDS011;63139;52.018;8.552;2023-04-07T13:50:12;7.32;;;6.28;;
74632;SDS011;63139;52.018;8.552;2023-04-07T13:52:40;7.50;;;5.75;;
74632;SDS011;63139;52.018;8.552;2023-04-07T13:55:08;6.13;;;5.00;;
74632;SDS011;63139;52.018;8.552;2023-04-07T13:57:37;6.00;;;4.93;;
74632;SDS011;63139;52.018;8.552;2023-04-07T14:00:07;6.32;;;4.72;;
74632;SDS011;63139;52.018;8.552;2023-04-07T14:02:36;8.43;;;5.65;;
74632;SDS011;63139;52.018;8.552;2023-04-07T14:05:05;6.13;;;5.03;;
74632;SDS011;63139;52.018;8.552;2023-04-07T14:07:33;6.88;;;5.63;;
74632;SDS011;63139;52.018;8.552;2023-04-07T14:10:02;6.18;;;5.10;;
74632;SDS011;63139;52.018;8.552;2023-04-07T14:12:30;7.22;;;5.93;;
74632;SDS011;63139;52.018;8.552;2023-04-07T14:14:59;5.93;;;4.75;;
74632;SDS011;63139;52.018;8.552;2023-04-07T14:17:30;6.18;;;5.35;;
74632;SDS011;63139;52.018;8.552;2023-04-07T14:19:59;6.13;;;5.05;;
74632;SDS011;63139;52.018;8.552;2023-04-07T14:22:27;9.00;;;6.53;;
74632;SDS011;63139;52.018;8.552;2023-04-07T14:24:55;7.55;;;6.10;;
74632;SDS011;63139;52.018;8.552;2023-04-07T14:27:23;7.90;;;6.40;;
74632;SDS011;63139;52.018;8.552;2023-04-07T14:29:51;8.82;;;7.32;;
74632;SDS011;63139;52.018;8.552;2023-04-07T14:32:21;8.88;;;7.13;;
74632;SDS011;63139;52.018;8.552;2023-04-07T14:34:50;6.68;;;5.88;;
74632;SDS011;63139;52.018;8.552;2023-04-07T14:37:18;6.88;;;5.40;;
74632;SDS011;63139;52.018;8.552;2023-04-07T14:39:49;8.50;;;6.03;;
74632;SDS011;63139;52.018;8.552;2023-04-07T14:42:28;7.45;;;6.03;;
74632;SDS011;63139;52.018;8.552;2023-04-07T14:44:56;8.80;;;7.07;;
74632;SDS011;63139;52.018;8.552;2023-04-07T14:47:25;8.02;;;6.10;;
74632;SDS011;63139;52.018;8.552;2023-04-07T14:49:55;7.15;;;5.57;;
74632;SDS011;63139;52.018;8.552;2023-04-07T14:52:22;7.55;;;6.00;;
74632;SDS011;63139;52.018;8.552;2023-04-07T14:54:51;7.82;;;6.65;;
74632;SDS011;63139;52.018;8.552;2023-04-07T14:57:18;7.18;;;6.07;;
74632;SDS011;63139;52.018;8.552;2023-04-07T14:59:47;7.63;;;6.50;;
74632;SDS011;63139;52.018;8.552;2023-04-07T15:02:15;6.80;;;5.55;;
74632;SDS011;63139;52.018;8.552;2023-04-07T15:04:42;7.40;;;6.00;;
74632;SDS011;63139;52.018;8.552;2023-04-07T15:07:12;9.25;;;6.63;;
74632;SDS011;63139;52.018;8.552;2023-04-07T15:09:39;6.97;;;5.93;;
74632;SDS011;63139;52.018;8.552;2023-04-07T15:12:07;8.00;;;6.38;;